KONA

Winona Municipal-Max Conrad Field Airport

Winona, Minnesota, USA
METAR KONA 170556Z AUTO 31009KT 10SM CLR 04/M02 A3014 RMK AO2
Observed Flight Rules
Oct-17 @ 05:56 UTC (14 minutes ago) Visual Flight Rules
Wind Visibility Clouds
310° at 9 knots 10 miles
  • Clear skies
Temperatures Readings
Current 4°C / 39°F
Dewpoint -2°C / 28°F
Humidity 65%
Altimeter 30.14" Hg
Pressure 1021 hPa
Elevation 200
METAR KONA 170556Z AUTO 31009KT 10SM CLR 04/M02 A3014 RMK AO2
Observed Flight Rules
Oct-17 @ 05:56 UTC
(14 minutes ago)
VFR
Wind Visibility
310° at 9 knots 10 miles
Clouds
  • Clear skies
Temperature Dewpoint
4°C / 39°F -2°C / 28°F
Humidity Altimeter Pressure
65% 30.14" Hg 1021 hPa